Time;durP1;ratioP1;P1;durP2;ratioP2;P2;SDS_P1;SDS_P2;PMS_P1;PMS_P2;Temp;Humidity;BMP_temperature;BMP_pressure;BME280_temperature;BME280_humidity;BME280_pressure;Samples;Min_cycle;Max_cycle;Signal;HPM_P1;HPM_P2
2023/04/26 00:02:06;;;;;;;1.35;0.90;;;22.80;48.20;;;;;;5038199;28;20489;-68
2023/04/26 00:04:32;;;;;;;1.00;0.60;;;22.80;48.20;;;;;;5037612;28;20017;-67
2023/04/26 00:06:59;;;;;;;1.23;0.75;;;22.80;48.20;;;;;;5040628;28;20115;-67
2023/04/26 00:09:25;;;;;;;0.93;0.70;;;22.80;48.20;;;;;;5039124;28;20024;-67
2023/04/26 00:11:51;;;;;;;0.95;0.63;;;22.80;48.20;;;;;;5037337;28;20033;-68
2023/04/26 00:14:16;;;;;;;1.20;0.70;;;22.70;48.20;;;;;;5038782;28;20025;-67
2023/04/26 00:16:42;;;;;;;1.05;0.70;;;22.70;48.20;;;;;;5038097;28;20512;-68
2023/04/26 00:19:08;;;;;;;0.80;0.70;;;22.70;48.20;;;;;;5036057;28;20187;-67
2023/04/26 00:21:34;;;;;;;1.02;0.80;;;22.70;48.20;;;;;;5039004;28;20115;-67
2023/04/26 00:24:00;;;;;;;0.98;0.70;;;22.70;48.20;;;;;;5037207;28;20044;-67
2023/04/26 00:26:25;;;;;;;1.00;0.75;;;22.70;48.20;;;;;;5036438;28;20028;-66
2023/04/26 00:28:51;;;;;;;0.60;0.60;;;22.70;48.20;;;;;;5041758;28;20396;-66
2023/04/26 00:31:17;;;;;;;0.88;0.70;;;22.70;48.20;;;;;;5037926;28;20024;-67
2023/04/26 00:33:43;;;;;;;0.77;0.63;;;22.70;48.20;;;;;;5036039;28;20401;-67
2023/04/26 00:36:09;;;;;;;0.75;0.63;;;22.70;48.20;;;;;;5037093;28;20101;-67
2023/04/26 00:38:35;;;;;;;0.77;0.65;;;22.70;48.30;;;;;;5035642;28;20029;-68
2023/04/26 00:41:00;;;;;;;0.95;0.60;;;22.60;48.20;;;;;;5039291;28;20495;-67
2023/04/26 00:43:26;;;;;;;0.98;0.70;;;22.60;48.20;;;;;;5037665;28;20033;-67
2023/04/26 00:45:52;;;;;;;1.10;0.80;;;22.60;48.20;;;;;;5041752;28;20051;-68
2023/04/26 00:48:18;;;;;;;0.50;0.50;;;22.60;48.20;;;;;;5038398;28;20528;-67
2023/04/26 00:50:44;;;;;;;0.80;0.60;;;22.60;48.20;;;;;;5037030;28;20036;-67
2023/04/26 00:53:13;;;;;;;1.08;0.75;;;22.60;48.20;;;;;;5037066;28;20025;-67
2023/04/26 00:55:40;;;;;;;1.20;0.90;;;22.60;48.30;;;;;;5038098;28;20057;-67
2023/04/26 00:58:06;;;;;;;1.02;0.60;;;22.60;48.30;;;;;;5036803;28;20027;-67
2023/04/26 01:00:31;;;;;;;1.20;0.68;;;22.60;48.30;;;;;;5036731;28;20033;-67
2023/04/26 01:02:57;;;;;;;0.98;0.70;;;22.60;48.30;;;;;;5033687;28;20033;-68
2023/04/26 01:05:23;;;;;;;0.88;0.70;;;22.50;48.20;;;;;;5037519;28;20040;-68
2023/04/26 01:07:49;;;;;;;0.82;0.60;;;22.50;48.20;;;;;;5036445;28;20048;-68
2023/04/26 01:10:16;;;;;;;1.20;0.80;;;22.50;48.20;;;;;;5037968;28;20587;-67
2023/04/26 01:12:41;;;;;;;0.70;0.70;;;22.50;48.30;;;;;;5036327;28;20101;-67
2023/04/26 01:15:09;;;;;;;1.05;0.73;;;22.50;48.30;;;;;;5035828;28;20460;-67
2023/04/26 01:17:36;;;;;;;1.08;0.70;;;22.50;48.30;;;;;;5039468;28;20024;-67
2023/04/26 01:20:03;;;;;;;1.00;0.65;;;22.50;48.30;;;;;;5036825;28;20112;-66
2023/04/26 01:22:32;;;;;;;0.77;0.70;;;22.50;48.30;;;;;;5037256;28;20028;-68
2023/04/26 01:25:00;;;;;;;0.90;0.73;;;22.50;48.30;;;;;;5039575;28;20144;-67
2023/04/26 01:27:26;;;;;;;1.13;0.70;;;22.50;48.30;;;;;;5036218;28;20033;-66
2023/04/26 01:29:51;;;;;;;1.40;0.80;;;22.50;48.30;;;;;;5038980;28;20048;-67
2023/04/26 01:32:17;;;;;;;1.00;0.70;;;22.50;48.30;;;;;;5037666;28;20029;-67
2023/04/26 01:34:43;;;;;;;1.00;0.80;;;22.50;48.30;;;;;;5037176;28;20434;-67
2023/04/26 01:37:08;;;;;;;0.88;0.63;;;22.40;48.30;;;;;;5036438;28;20032;-67
2023/04/26 01:39:35;;;;;;;1.13;0.77;;;22.40;48.30;;;;;;5037756;28;20310;-67
2023/04/26 01:42:01;;;;;;;1.00;0.75;;;22.40;48.40;;;;;;5039952;28;20024;-67
2023/04/26 01:44:27;;;;;;;0.93;0.75;;;22.40;48.30;;;;;;5038731;28;20040;-67
2023/04/26 01:46:53;;;;;;;0.80;0.65;;;22.40;48.40;;;;;;5044724;28;20170;-67
2023/04/26 01:49:18;;;;;;;0.80;0.70;;;22.40;48.40;;;;;;5038019;28;20362;-68
2023/04/26 01:51:44;;;;;;;2.55;0.90;;;22.40;48.40;;;;;;5041498;28;20040;-67
2023/04/26 01:54:10;;;;;;;1.52;1.00;;;22.30;48.40;;;;;;5041207;28;20388;-67
2023/04/26 01:56:35;;;;;;;1.17;0.75;;;22.40;48.40;;;;;;5038176;28;20030;-68
2023/04/26 01:59:01;;;;;;;1.02;0.70;;;22.40;48.40;;;;;;5037299;28;20041;-67
2023/04/26 02:01:26;;;;;;;0.95;0.70;;;22.30;48.30;;;;;;5040851;28;20477;-67
2023/04/26 02:03:52;;;;;;;0.70;0.60;;;22.40;48.40;;;;;;5037389;28;20037;-67
2023/04/26 02:06:18;;;;;;;1.63;0.80;;;22.40;48.40;;;;;;5042109;28;20038;-67
2023/04/26 02:08:44;;;;;;;0.88;0.70;;;22.40;48.40;;;;;;5042902;28;20385;-68
2023/04/26 02:11:10;;;;;;;1.10;0.70;;;22.30;48.40;;;;;;5040614;28;20093;-67
2023/04/26 02:13:36;;;;;;;1.27;0.70;;;22.30;48.40;;;;;;5041071;28;20094;-67
2023/04/26 02:16:02;;;;;;;0.98;0.70;;;22.30;48.40;;;;;;5038802;28;20025;-67
2023/04/26 02:18:28;;;;;;;1.92;0.82;;;22.30;48.40;;;;;;5040101;28;20589;-68
2023/04/26 02:20:54;;;;;;;1.00;0.77;;;22.30;48.40;;;;;;5040110;28;20036;-67
2023/04/26 02:23:20;;;;;;;0.65;0.65;;;22.30;48.50;;;;;;5038662;28;20025;-67
2023/04/26 02:25:47;;;;;;;1.02;0.60;;;22.30;48.40;;;;;;5042229;28;20076;-63
2023/04/26 02:28:14;;;;;;;0.93;0.70;;;22.30;48.40;;;;;;5037372;28;20068;-67
2023/04/26 02:30:40;;;;;;;1.10;0.68;;;22.30;48.40;;;;;;5042511;28;20108;-68
2023/04/26 02:33:07;;;;;;;1.25;0.75;;;22.20;48.40;;;;;;5040311;28;20121;-67
2023/04/26 02:35:33;;;;;;;1.08;0.80;;;22.20;48.40;;;;;;5040644;28;20033;-68
2023/04/26 02:37:59;;;;;;;0.85;0.70;;;22.20;48.40;;;;;;5040612;28;20437;-68
2023/04/26 02:40:25;;;;;;;0.82;0.63;;;22.20;48.50;;;;;;5038878;28;20071;-67
2023/04/26 02:42:50;;;;;;;1.10;0.73;;;22.20;48.40;;;;;;5040029;28;20080;-67
2023/04/26 02:45:16;;;;;;;0.60;0.60;;;22.20;48.50;;;;;;5041057;28;20029;-68
2023/04/26 02:47:41;;;;;;;0.68;0.60;;;22.20;48.50;;;;;;5040512;28;20119;-68
2023/04/26 02:50:08;;;;;;;1.00;0.77;;;22.20;48.50;;;;;;5038455;28;20044;-67
2023/04/26 02:52:37;;;;;;;0.98;0.80;;;22.20;48.50;;;;;;5040473;28;20071;-67
2023/04/26 02:55:03;;;;;;;0.85;0.65;;;22.10;48.40;;;;;;5041093;28;20445;-67
2023/04/26 02:57:30;;;;;;;0.98;0.70;;;22.20;48.50;;;;;;5037779;28;20033;-67
2023/04/26 02:59:56;;;;;;;0.93;0.80;;;22.20;48.50;;;;;;5041105;28;20559;-67
2023/04/26 03:02:21;;;;;;;1.05;0.70;;;22.10;48.50;;;;;;5040551;28;20465;-67
2023/04/26 03:04:47;;;;;;;0.70;0.70;;;22.10;48.50;;;;;;5036569;28;20047;-67
2023/04/26 03:07:13;;;;;;;0.98;0.77;;;22.10;48.50;;;;;;5039160;28;20236;-67
2023/04/26 03:09:38;;;;;;;0.73;0.70;;;22.10;48.50;;;;;;5041159;28;20036;-67
2023/04/26 03:12:08;;;;;;;0.70;0.68;;;22.10;48.50;;;;;;5040562;28;20037;-67
2023/04/26 03:14:33;;;;;;;;;;;22.10;48.50;;;;;;5036631;28;20174;-67
2023/04/26 03:17:00;;;;;;;1.00;0.70;;;22.10;48.50;;;;;;5042015;28;19909;-67
2023/04/26 03:19:27;;;;;;;1.02;0.70;;;22.10;48.50;;;;;;5037832;28;20021;-68
2023/04/26 03:21:53;;;;;;;0.70;0.70;;;22.10;48.50;;;;;;5038729;28;20505;-68
2023/04/26 03:24:18;;;;;;;1.00;0.80;;;22.10;48.50;;;;;;5039748;28;20106;-67
2023/04/26 03:26:44;;;;;;;0.63;0.60;;;22.10;48.50;;;;;;5039163;28;20434;-68
2023/04/26 03:29:11;;;;;;;0.75;0.60;;;22.10;49.10;;;;;;5040063;28;20040;-67
2023/04/26 03:31:37;;;;;;;1.63;0.70;;;22.10;48.60;;;;;;5038768;28;20698;-67
2023/04/26 03:34:03;;;;;;;0.98;0.60;;;22.10;48.60;;;;;;5037067;28;20032;-67
2023/04/26 03:36:28;;;;;;;0.70;0.70;;;22.00;48.50;;;;;;5042020;28;20028;-67
2023/04/26 03:38:55;;;;;;;0.70;0.70;;;22.00;48.50;;;;;;5039356;28;20339;-67
2023/04/26 03:41:21;;;;;;;1.10;0.70;;;22.00;48.50;;;;;;5038517;28;20029;-68
2023/04/26 03:43:47;;;;;;;0.85;0.70;;;22.00;48.60;;;;;;5038535;28;20902;-67
2023/04/26 03:46:13;;;;;;;1.08;0.60;;;22.00;48.50;;;;;;5039460;28;20115;-67
2023/04/26 03:48:39;;;;;;;0.60;0.60;;;22.00;48.50;;;;;;5038039;28;20179;-66
2023/04/26 03:51:05;;;;;;;0.80;0.70;;;22.00;48.60;;;;;;5039229;28;20492;-67
2023/04/26 03:53:31;;;;;;;0.98;0.70;;;22.00;48.60;;;;;;5038569;28;20516;-67
2023/04/26 03:55:57;;;;;;;1.00;0.75;;;22.00;48.60;;;;;;5039634;28;20045;-67
2023/04/26 03:58:24;;;;;;;1.30;0.80;;;22.00;48.60;;;;;;5040390;28;20114;-67
2023/04/26 04:00:50;;;;;;;0.77;0.70;;;22.00;48.60;;;;;;5037512;28;20461;-67
2023/04/26 04:03:17;;;;;;;0.68;0.68;;;22.00;48.60;;;;;;5037308;28;20036;-67
2023/04/26 04:05:43;;;;;;;0.57;0.50;;;22.00;48.70;;;;;;5035629;28;20027;-67
2023/04/26 04:08:08;;;;;;;0.98;0.75;;;22.00;48.70;;;;;;5038503;28;20025;-68
2023/04/26 04:10:36;;;;;;;0.93;0.80;;;22.00;48.70;;;;;;5040175;28;20484;-67
2023/04/26 04:13:02;;;;;;;0.80;0.70;;;22.00;48.70;;;;;;5039412;28;20029;-67
2023/04/26 04:15:27;;;;;;;0.70;0.70;;;22.00;48.70;;;;;;5037039;28;20496;-67
2023/04/26 04:17:53;;;;;;;1.02;0.70;;;22.00;48.70;;;;;;5037406;28;20037;-67
2023/04/26 04:20:20;;;;;;;0.90;0.70;;;21.90;48.70;;;;;;5036444;28;20464;-67
2023/04/26 04:22:46;;;;;;;0.93;0.70;;;21.90;48.70;;;;;;5036963;28;20038;-67
2023/04/26 04:25:12;;;;;;;0.70;0.70;;;21.90;48.70;;;;;;5036559;28;20040;-67
2023/04/26 04:27:41;;;;;;;0.70;0.70;;;21.90;48.70;;;;;;5039082;28;20093;-67
2023/04/26 04:30:08;;;;;;;0.75;0.70;;;21.90;48.70;;;;;;5036667;28;20034;-67
2023/04/26 04:32:35;;;;;;;1.48;0.60;;;21.90;48.70;;;;;;5038053;28;20077;-68
2023/04/26 04:35:01;;;;;;;1.00;0.70;;;21.90;48.70;;;;;;5039872;28;20135;-67
2023/04/26 04:37:32;;;;;;;1.40;0.80;;;21.90;48.70;;;;;;5039216;28;20678;-67
2023/04/26 04:39:58;;;;;;;0.85;0.75;;;21.90;48.70;;;;;;5038684;28;20102;-67
2023/04/26 04:42:26;;;;;;;1.38;0.80;;;21.90;48.70;;;;;;5037974;28;20052;-67
2023/04/26 04:44:52;;;;;;;0.88;0.68;;;21.90;48.80;;;;;;5036931;28;20022;-66
2023/04/26 04:47:17;;;;;;;0.80;0.70;;;21.90;48.80;;;;;;5044995;28;20025;-65
2023/04/26 04:49:43;;;;;;;0.70;0.60;;;21.90;48.80;;;;;;5037315;28;20394;-66
2023/04/26 04:52:08;;;;;;;0.73;0.70;;;21.90;48.90;;;;;;5037309;28;20429;-66
2023/04/26 04:54:34;;;;;;;1.08;0.88;;;21.90;48.90;;;;;;5035683;28;20021;-66
2023/04/26 04:57:00;;;;;;;0.60;0.60;;;21.90;48.90;;;;;;5037817;28;20025;-66
2023/04/26 04:59:26;;;;;;;0.80;0.70;;;21.90;48.90;;;;;;5036750;28;20075;-66
2023/04/26 05:01:51;;;;;;;0.80;0.70;;;21.90;48.90;;;;;;5037235;28;20057;-66
2023/04/26 05:04:17;;;;;;;0.73;0.60;;;21.90;48.90;;;;;;5038915;28;20071;-66
2023/04/26 05:06:43;;;;;;;1.50;0.70;;;21.90;49.00;;;;;;5039328;28;20047;-66
2023/04/26 05:09:09;;;;;;;0.70;0.70;;;21.90;49.00;;;;;;5037623;28;20036;-66
2023/04/26 05:11:34;;;;;;;0.68;0.68;;;21.90;49.00;;;;;;5035904;28;20539;-66
2023/04/26 05:14:00;;;;;;;2.55;1.33;;;21.90;49.00;;;;;;5043600;28;20208;-65
2023/04/26 05:16:26;;;;;;;1.10;0.80;;;21.80;49.00;;;;;;5039704;28;20025;-65
2023/04/26 05:18:52;;;;;;;0.82;0.70;;;21.80;49.00;;;;;;5044380;28;20060;-65
2023/04/26 05:21:18;;;;;;;0.70;0.70;;;21.90;49.00;;;;;;5041776;28;20120;-65
2023/04/26 05:23:44;;;;;;;1.02;0.80;;;21.80;49.00;;;;;;5043320;28;20032;-65
2023/04/26 05:26:13;;;;;;;1.00;0.73;;;21.90;49.10;;;;;;5039140;28;20024;-65
2023/04/26 05:28:39;;;;;;;;;;;21.80;49.10;;;;;;5042224;28;20041;-65
2023/04/26 05:31:04;;;;;;;1.67;0.82;;;21.80;49.10;;;;;;5041379;28;19916;-65
2023/04/26 05:33:30;;;;;;;1.80;0.80;;;21.80;49.00;;;;;;5043872;28;20507;-65
2023/04/26 05:35:56;;;;;;;1.85;0.80;;;21.80;49.10;;;;;;5039997;28;20128;-64
2023/04/26 05:38:22;;;;;;;1.95;0.98;;;21.80;49.10;;;;;;5040853;28;20366;-65
2023/04/26 05:40:48;;;;;;;1.52;0.80;;;21.80;49.10;;;;;;5042264;28;20055;-65
2023/04/26 05:43:13;;;;;;;1.73;1.00;;;21.80;49.10;;;;;;5042270;28;20101;-65
2023/04/26 05:45:39;;;;;;;1.60;0.80;;;21.80;49.00;;;;;;5043439;28;20025;-65
2023/04/26 05:48:05;;;;;;;1.40;0.80;;;21.80;49.10;;;;;;5041028;28;20032;-65
2023/04/26 05:50:31;;;;;;;1.88;0.93;;;21.80;49.30;;;;;;5037776;28;20044;-65
2023/04/26 05:52:57;;;;;;;1.45;0.90;;;21.80;49.10;;;;;;5041208;28;20484;-65
2023/04/26 05:55:22;;;;;;;1.85;0.90;;;21.80;49.10;;;;;;5041950;28;20021;-65
2023/04/26 05:57:48;;;;;;;1.65;0.93;;;21.70;49.00;;;;;;5042350;28;20021;-65
2023/04/26 06:00:14;;;;;;;0.90;0.70;;;21.80;49.10;;;;;;5039858;28;20029;-65
2023/04/26 06:02:40;;;;;;;1.42;0.80;;;21.70;49.00;;;;;;5039835;28;20124;-65
2023/04/26 06:05:06;;;;;;;1.55;0.98;;;21.80;49.10;;;;;;5039698;28;20113;-65
2023/04/26 06:07:32;;;;;;;1.83;0.90;;;21.70;49.00;;;;;;5040168;28;20477;-65
2023/04/26 06:09:59;;;;;;;1.88;1.10;;;21.80;49.10;;;;;;5037480;28;20056;-66
2023/04/26 06:12:25;;;;;;;0.95;0.80;;;21.70;49.10;;;;;;5039525;28;20029;-66
2023/04/26 06:14:51;;;;;;;2.28;0.90;;;21.80;49.10;;;;;;5037837;28;20028;-66
2023/04/26 06:17:16;;;;;;;0.80;0.70;;;21.70;49.00;;;;;;5038549;28;20067;-65
2023/04/26 06:19:42;;;;;;;1.10;0.75;;;21.70;49.00;;;;;;5042030;28;20062;-65
2023/04/26 06:22:07;;;;;;;2.17;0.90;;;21.70;49.00;;;;;;5040687;28;20087;-66
2023/04/26 06:24:33;;;;;;;1.67;0.90;;;21.70;49.00;;;;;;5041129;28;20029;-65
2023/04/26 06:26:58;;;;;;;1.48;0.80;;;21.70;49.00;;;;;;5040275;28;20083;-65
2023/04/26 06:29:24;;;;;;;1.60;0.85;;;21.70;49.00;;;;;;5042164;28;20076;-66
2023/04/26 06:31:50;;;;;;;1.08;0.75;;;21.70;49.00;;;;;;5043786;28;20470;-66
2023/04/26 06:34:15;;;;;;;1.63;0.85;;;21.70;49.00;;;;;;5044060;28;20440;-65
2023/04/26 06:36:41;;;;;;;1.73;0.90;;;21.70;49.00;;;;;;5040768;28;20044;-65
2023/04/26 06:39:06;;;;;;;1.80;1.00;;;21.70;49.00;;;;;;5039087;28;20027;-66
2023/04/26 06:41:32;;;;;;;2.25;1.05;;;21.70;49.00;;;;;;5041374;28;20029;-65
2023/04/26 06:43:58;;;;;;;2.28;0.90;;;21.70;49.00;;;;;;5036507;28;20030;-66
2023/04/26 06:46:23;;;;;;;2.33;1.00;;;21.70;49.00;;;;;;5039810;28;20117;-66
2023/04/26 06:48:51;;;;;;;3.40;1.25;;;21.70;49.00;;;;;;5039255;28;20040;-65
2023/04/26 06:51:17;;;;;;;2.70;1.02;;;21.70;49.00;;;;;;5039112;28;20098;-64
2023/04/26 06:53:42;;;;;;;1.90;1.10;;;21.70;49.00;;;;;;5038011;28;20441;-66
2023/04/26 06:56:08;;;;;;;1.80;0.90;;;21.70;49.10;;;;;;5039862;28;20100;-66
2023/04/26 06:58:33;;;;;;;1.58;1.00;;;21.70;49.10;;;;;;5039804;28;20035;-66
2023/04/26 07:01:00;;;;;;;1.90;1.10;;;21.70;49.10;;;;;;5038556;28;20418;-66
2023/04/26 07:03:25;;;;;;;2.55;1.30;;;21.70;49.10;;;;;;5035880;28;20078;-66
2023/04/26 07:05:51;;;;;;;2.38;1.20;;;21.70;49.10;;;;;;5037983;28;20446;-65
2023/04/26 07:08:17;;;;;;;2.42;1.30;;;21.70;49.10;;;;;;5041151;28;20029;-66
2023/04/26 07:10:42;;;;;;;3.17;1.23;;;21.70;49.10;;;;;;5040818;28;20497;-65
2023/04/26 07:13:08;;;;;;;1.67;1.10;;;21.70;49.20;;;;;;5040240;28;20025;-66
2023/04/26 07:15:35;;;;;;;2.17;1.17;;;21.70;49.10;;;;;;5039506;28;20026;-66
2023/04/26 07:18:00;;;;;;;3.30;1.20;;;21.70;49.20;;;;;;5038011;28;20025;-66
2023/04/26 07:20:26;;;;;;;2.97;1.30;;;21.70;49.20;;;;;;5038351;28;20110;-66
2023/04/26 07:22:51;;;;;;;2.70;1.15;;;21.70;49.10;;;;;;5036901;28;20411;-66
2023/04/26 07:25:17;;;;;;;1.48;1.00;;;21.70;49.20;;;;;;5038309;28;20033;-66
2023/04/26 07:27:43;;;;;;;2.00;1.20;;;21.70;49.20;;;;;;5039312;28;20060;-66
2023/04/26 07:30:09;;;;;;;2.50;1.20;;;21.70;49.20;;;;;;5042394;28;20037;-66
2023/04/26 07:32:35;;;;;;;2.40;1.20;;;21.70;49.20;;;;;;5045725;28;20092;-66
2023/04/26 07:35:06;;;;;;;2.40;1.20;;;21.70;49.20;;;;;;5038584;28;20034;-66
2023/04/26 07:37:31;;;;;;;2.05;1.23;;;21.70;49.20;;;;;;5038884;28;20026;-66
2023/04/26 07:39:57;;;;;;;2.33;1.27;;;21.70;49.20;;;;;;5039799;28;20029;-66
2023/04/26 07:42:23;;;;;;;2.47;1.20;;;21.70;49.20;;;;;;5037698;28;20029;-66
2023/04/26 07:44:48;;;;;;;2.60;1.27;;;21.70;49.20;;;;;;5036325;28;20026;-66
2023/04/26 07:47:14;;;;;;;2.85;1.27;;;21.70;49.20;;;;;;5037321;28;20033;-66
2023/04/26 07:49:40;;;;;;;2.22;1.20;;;21.70;49.20;;;;;;5039133;28;20025;-66
2023/04/26 07:52:07;;;;;;;4.00;1.52;;;21.70;49.20;;;;;;5044024;28;20060;-66
2023/04/26 07:54:33;;;;;;;3.47;1.48;;;21.70;49.80;;;;;;5037351;28;20465;-66
2023/04/26 07:56:59;;;;;;;3.40;1.30;;;21.70;49.20;;;;;;5039214;28;20026;-66
2023/04/26 07:59:25;;;;;;;1.98;1.20;;;21.70;49.30;;;;;;5039216;28;20025;-66
2023/04/26 08:01:51;;;;;;;2.70;1.13;;;21.70;49.30;;;;;;5038957;28;20036;-66
2023/04/26 08:04:17;;;;;;;2.55;1.25;;;21.70;49.30;;;;;;5036197;28;20025;-66
2023/04/26 08:06:44;;;;;;;3.08;1.27;;;21.70;49.30;;;;;;5035835;28;20033;-66
2023/04/26 08:09:10;;;;;;;2.22;1.33;;;21.70;49.30;;;;;;5039683;28;20025;-66
2023/04/26 08:11:36;;;;;;;3.10;1.23;;;21.70;49.30;;;;;;5042295;28;20465;-66
2023/04/26 08:14:02;;;;;;;2.40;1.15;;;21.70;49.40;;;;;;5038108;28;20133;-67
2023/04/26 08:16:28;;;;;;;2.30;1.20;;;21.70;49.40;;;;;;5039625;28;20037;-67
2023/04/26 08:18:54;;;;;;;2.05;1.45;;;21.70;49.50;;;;;;5037851;28;20091;-66
2023/04/26 08:21:20;;;;;;;2.17;1.15;;;21.70;49.50;;;;;;5036942;28;20029;-66
2023/04/26 08:23:46;;;;;;;2.13;1.20;;;21.70;49.50;;;;;;5037033;28;20033;-66
2023/04/26 08:26:11;;;;;;;2.83;1.23;;;21.70;49.50;;;;;;5037811;28;20033;-66
2023/04/26 08:28:37;;;;;;;2.10;1.15;;;21.70;49.60;;;;;;5040977;28;20153;-67
2023/04/26 08:31:03;;;;;;;2.00;1.10;;;21.70;49.60;;;;;;5039785;28;20474;-66
2023/04/26 08:33:29;;;;;;;2.60;1.20;;;21.70;49.70;;;;;;5037878;28;20100;-66
2023/04/26 08:35:55;;;;;;;2.45;1.20;;;21.70;49.60;;;;;;5034513;28;20604;-66
2023/04/26 08:38:21;;;;;;;2.00;1.02;;;21.70;49.70;;;;;;5038907;28;20034;-66
2023/04/26 08:40:47;;;;;;;1.77;1.08;;;21.70;49.70;;;;;;5037014;28;20458;-66
2023/04/26 08:43:14;;;;;;;2.42;1.20;;;21.70;49.70;;;;;;5038409;28;20027;-67
2023/04/26 08:45:43;;;;;;;2.20;1.15;;;21.70;49.70;;;;;;5037795;28;20049;-66
2023/04/26 08:48:13;;;;;;;2.25;1.30;;;21.70;49.80;;;;;;5039060;28;20089;-67
2023/04/26 08:50:41;;;;;;;1.85;1.10;;;21.70;49.70;;;;;;5036363;28;20021;-67
2023/04/26 08:53:08;;;;;;;1.55;1.00;;;21.70;49.70;;;;;;5038629;28;20496;-67
2023/04/26 08:55:35;;;;;;;2.10;1.10;;;21.70;49.80;;;;;;5043257;28;20058;-67
2023/04/26 08:58:01;;;;;;;2.85;1.27;;;21.70;49.70;;;;;;5037152;28;20025;-67
2023/04/26 09:00:27;;;;;;;1.70;1.00;;;21.70;49.70;;;;;;5037857;28;20030;-67
2023/04/26 09:02:53;;;;;;;2.15;1.15;;;21.70;49.70;;;;;;5037849;28;20237;-67
2023/04/26 09:05:22;;;;;;;1.52;0.90;;;21.70;49.70;;;;;;5036433;28;20116;-67
2023/04/26 09:07:48;;;;;;;;;;;21.70;49.70;;;;;;5036715;28;20171;-67
2023/04/26 09:10:19;;;;;;;1.90;0.93;;;21.70;49.70;;;;;;5038434;28;20015;-67
2023/04/26 09:12:45;;;;;;;1.35;0.80;;;21.70;49.80;;;;;;5034377;28;20025;-67
2023/04/26 09:15:14;;;;;;;1.63;1.00;;;21.70;49.70;;;;;;5037533;28;20025;-67
2023/04/26 09:17:40;;;;;;;1.45;0.90;;;21.70;49.70;;;;;;5039662;28;20029;-67
2023/04/26 09:20:26;;;;;;;2.20;1.15;;;21.70;49.70;;;;;;5035130;28;20086;-67
2023/04/26 09:23:12;;;;;;;1.73;0.90;;;21.70;49.70;;;;;;5036771;28;20037;-67
2023/04/26 09:25:38;;;;;;;2.15;1.30;;;21.70;49.80;;;;;;5037452;28;20038;-67
2023/04/26 09:28:18;;;;;;;2.08;1.08;;;21.70;49.80;;;;;;5035528;28;20063;-68
2023/04/26 09:30:44;;;;;;;1.52;1.00;;;21.70;50.30;;;;;;5039817;28;20036;-67
2023/04/26 09:33:09;;;;;;;1.40;1.00;;;21.70;49.80;;;;;;5036697;28;20034;-67
2023/04/26 09:35:40;;;;;;;3.38;1.60;;;21.70;49.80;;;;;;5036265;28;20010;-67
2023/04/26 09:38:08;;;;;;;1.45;0.90;;;21.70;49.80;;;;;;5035710;28;20457;-67
2023/04/26 09:40:36;;;;;;;1.48;0.93;;;21.70;49.80;;;;;;5035043;28;20542;-67
2023/04/26 09:43:05;;;;;;;1.88;0.90;;;21.70;49.80;;;;;;5038877;28;20354;-67
2023/04/26 09:45:43;;;;;;;1.65;1.05;;;21.70;49.80;;;;;;5037590;28;20641;-67
2023/04/26 09:48:33;;;;;;;1.80;1.05;;;21.70;49.80;;;;;;5038377;28;20065;-67
2023/04/26 09:51:02;;;;;;;1.70;0.95;;;21.80;49.90;;;;;;5028992;28;20115;-67
2023/04/26 09:53:39;;;;;;;2.47;1.00;;;21.70;49.80;;;;;;5035358;28;20030;-67
2023/04/26 09:56:13;;;;;;;1.55;1.00;;;21.70;49.80;;;;;;5036089;28;20036;-66
2023/04/26 09:58:57;;;;;;;1.70;0.90;;;21.80;49.90;;;;;;5038193;28;20064;-67
2023/04/26 10:01:22;;;;;;;1.27;0.93;;;21.80;49.90;;;;;;5037659;28;20063;-67
2023/04/26 10:03:48;;;;;;;1.83;1.00;;;21.80;49.90;;;;;;5039652;28;20445;-67
2023/04/26 10:06:15;;;;;;;1.85;1.00;;;21.80;49.90;;;;;;5041653;28;20083;-67
2023/04/26 10:08:41;;;;;;;1.63;0.98;;;21.80;49.90;;;;;;5038902;28;20221;-67
2023/04/26 10:11:09;;;;;;;1.67;1.00;;;21.70;49.80;;;;;;5034973;28;20552;-67
2023/04/26 10:13:34;;;;;;;2.00;1.00;;;21.80;49.90;;;;;;5039383;28;20501;-67
2023/04/26 10:16:01;;;;;;;1.27;0.93;;;21.80;49.90;;;;;;5041256;28;20032;-66
2023/04/26 10:18:27;;;;;;;1.95;1.00;;;21.70;49.80;;;;;;5039748;28;20025;-66
2023/04/26 10:20:56;;;;;;;2.60;1.00;;;21.70;49.80;;;;;;5043419;28;20496;-67
2023/04/26 10:23:26;;;;;;;1.85;1.08;;;21.80;49.90;;;;;;5040419;28;20090;-67
2023/04/26 10:25:53;;;;;;;1.83;0.90;;;21.80;49.90;;;;;;5041173;28;20100;-67
2023/04/26 10:28:47;;;;;;;1.98;1.08;;;21.80;49.90;;;;;;5040247;28;20025;-67
2023/04/26 10:31:13;;;;;;;1.67;1.00;;;21.80;49.90;;;;;;5042417;28;20454;-67
2023/04/26 10:33:38;;;;;;;1.73;0.95;;;21.80;49.90;;;;;;5039253;28;20104;-67
2023/04/26 10:36:11;;;;;;;2.00;1.10;;;21.80;49.90;;;;;;5037841;28;20034;-67
2023/04/26 10:39:15;;;;;;;3.03;1.00;;;21.80;49.90;;;;;;5036980;28;20037;-67
2023/04/26 10:41:40;;;;;;;1.52;0.90;;;21.80;49.90;;;;;;5038710;28;20108;-68
2023/04/26 10:44:51;;;;;;;1.60;1.00;;;21.80;49.90;;;;;;5042158;28;20116;-67
2023/04/26 10:47:22;;;;;;;1.25;0.90;;;21.80;50.00;;;;;;5039865;28;20045;-68
2023/04/26 10:49:48;;;;;;;1.13;0.82;;;21.80;49.90;;;;;;5041237;28;20428;-67
2023/04/26 10:52:15;;;;;;;1.67;0.93;;;21.80;50.40;;;;;;5040054;28;20028;-67
2023/04/26 10:54:54;;;;;;;1.50;1.00;;;21.80;49.90;;;;;;5039009;28;20504;-68
2023/04/26 10:57:21;;;;;;;2.10;1.30;;;21.80;49.80;;;;;;5037371;28;20101;-67
2023/04/26 11:00:15;;;;;;;2.30;1.13;;;21.80;49.80;;;;;;5029526;28;20433;-67
2023/04/26 11:03:02;;;;;;;1.52;0.95;;;21.80;49.70;;;;;;5037402;28;20037;-67
2023/04/26 11:05:52;;;;;;;2.15;1.10;;;21.80;49.70;;;;;;5040973;28;20025;-67
2023/04/26 11:08:25;;;;;;;2.17;1.23;;;21.80;49.60;;;;;;5037931;28;20036;-67
2023/04/26 11:10:55;;;;;;;1.90;1.10;;;21.80;49.50;;;;;;5039859;28;20025;-67
2023/04/26 11:13:21;;;;;;;1.98;1.13;;;21.80;49.40;;;;;;5036828;28;20099;-67
2023/04/26 11:15:50;;;;;;;2.40;1.15;;;21.80;49.40;;;;;;5041366;28;20020;-67
2023/04/26 11:18:19;;;;;;;2.47;1.40;;;21.80;49.30;;;;;;5038755;28;20529;-67
2023/04/26 11:20:45;;;;;;;2.30;1.13;;;21.80;49.20;;;;;;5042581;28;20078;-67
2023/04/26 11:23:11;;;;;;;2.63;1.30;;;21.80;49.10;;;;;;5039874;28;20946;-67
2023/04/26 11:25:38;;;;;;;3.10;1.40;;;21.80;49.10;;;;;;5038957;28;20033;-67
2023/04/26 11:28:05;;;;;;;2.30;1.38;;;21.80;49.00;;;;;;5037997;28;20036;-67
2023/04/26 11:30:32;;;;;;;2.72;1.30;;;21.80;48.90;;;;;;5045700;28;20408;-67
2023/04/26 11:33:04;;;;;;;2.35;1.40;;;21.80;48.90;;;;;;5044627;28;20029;-67
2023/04/26 11:35:34;;;;;;;4.30;1.70;;;21.80;48.80;;;;;;5037089;28;20021;-67
2023/04/26 11:38:02;;;;;;;3.13;1.60;;;21.80;48.80;;;;;;5037682;28;20113;-67
2023/04/26 11:40:30;;;;;;;2.83;1.67;;;21.80;48.80;;;;;;5042806;28;20025;-67
2023/04/26 11:43:00;;;;;;;2.95;1.63;;;21.80;48.70;;;;;;5034400;28;20413;-67
2023/04/26 11:45:26;;;;;;;3.78;1.88;;;21.80;48.80;;;;;;5039977;28;20648;-66
2023/04/26 11:47:52;;;;;;;3.60;1.60;;;21.80;48.80;;;;;;5038778;28;20518;-67
2023/04/26 11:50:18;;;;;;;1.83;1.20;;;21.80;48.80;;;;;;5038126;28;20111;-66
2023/04/26 11:52:44;;;;;;;2.78;1.40;;;21.80;48.80;;;;;;5036770;28;20123;-67
2023/04/26 11:55:10;;;;;;;4.25;1.55;;;21.90;48.90;;;;;;5036602;28;20451;-66
2023/04/26 11:57:36;;;;;;;3.22;1.75;;;21.80;48.90;;;;;;5039210;28;20109;-67
2023/04/26 12:00:13;;;;;;;2.72;1.52;;;21.80;48.90;;;;;;5036909;28;20033;-67
2023/04/26 12:02:42;;;;;;;3.15;1.63;;;21.80;48.90;;;;;;5037272;28;20032;-67
2023/04/26 12:05:09;;;;;;;3.45;1.85;;;21.80;48.90;;;;;;5037652;28;20111;-67
2023/04/26 12:07:38;;;;;;;3.08;1.60;;;21.90;49.00;;;;;;5034516;28;20079;-67
2023/04/26 12:10:17;;;;;;;2.80;1.60;;;21.90;49.00;;;;;;5038083;28;20112;-67
2023/04/26 12:12:44;;;;;;;2.67;1.40;;;21.90;49.00;;;;;;5037554;28;20037;-67
2023/04/26 12:15:11;;;;;;;2.78;1.50;;;21.80;48.90;;;;;;5038530;28;20135;-67
2023/04/26 12:17:36;;;;;;;3.30;1.70;;;21.90;49.00;;;;;;5040066;28;20029;-66
2023/04/26 12:20:09;;;;;;;3.25;1.63;;;21.90;49.00;;;;;;5038146;28;20028;-66
2023/04/26 12:22:35;;;;;;;2.38;1.30;;;21.90;49.00;;;;;;5038863;28;20129;-65
2023/04/26 12:25:05;;;;;;;3.03;1.38;;;21.90;49.00;;;;;;5035814;28;20112;-67
2023/04/26 12:27:31;;;;;;;3.47;1.50;;;21.80;48.90;;;;;;5038437;28;20025;-67
2023/04/26 12:29:56;;;;;;;2.50;1.40;;;21.90;48.90;;;;;;5038277;28;20043;-68
2023/04/26 12:32:22;;;;;;;2.70;1.48;;;21.90;49.00;;;;;;5039138;28;20401;-67
2023/04/26 12:34:48;;;;;;;2.30;1.20;;;21.90;49.00;;;;;;5038170;28;20021;-67
2023/04/26 12:37:13;;;;;;;2.80;1.25;;;21.90;49.00;;;;;;5038095;28;20611;-67
2023/04/26 12:39:39;;;;;;;2.33;1.50;;;21.90;49.00;;;;;;5037109;28;20067;-68
2023/04/26 12:42:05;;;;;;;2.60;1.40;;;21.90;49.00;;;;;;5037700;28;20121;-68
2023/04/26 12:44:30;;;;;;;2.33;1.30;;;21.90;49.00;;;;;;5038876;28;20079;-67
2023/04/26 12:46:56;;;;;;;2.15;1.30;;;21.90;48.90;;;;;;5038772;28;20038;-68
2023/04/26 12:49:22;;;;;;;2.47;1.33;;;21.90;48.90;;;;;;5036561;28;20037;-67